Time;durP1;ratioP1;P1;durP2;ratioP2;P2;SDS_P1;SDS_P2;PMS_P1;PMS_P2;Temp;Humidity;BMP_temperature;BMP_pressure;BME280_temperature;BME280_humidity;BME280_pressure;Samples;Min_cycle;Max_cycle;Signal;HPM_P1;HPM_P2
2021/01/23 06:01:41;;;;;;;0.10;0.10;;;;;;;;;;5058841;28;20444;-52
2021/01/23 06:04:14;;;;;;;0.00;0.00;;;;;;;;;;5044475;28;20037;-52
2021/01/23 06:06:43;;;;;;;0.17;0.17;;;;;;;;;;5044500;28;20047;-52
2021/01/23 06:09:29;;;;;;;0.10;0.10;;;;;;;;;;5045471;28;20048;-51
2021/01/23 06:11:55;;;;;;;0.32;0.32;;;;;;;;;;5044983;28;20029;-52
2021/01/23 06:14:35;;;;;;;4.03;0.68;;;;;;;;;;5046389;28;20386;-55
2021/01/23 06:17:01;;;;;;;0.20;0.20;;;;;;;;;;5043856;28;20116;-54
2021/01/23 06:19:27;;;;;;;0.10;0.10;;;;;;;;;;5043714;28;20029;-53
2021/01/23 06:21:53;;;;;;;0.75;0.57;;;;;;;;;;5049043;28;20040;-52
2021/01/23 06:24:42;;;;;;;0.10;0.10;;;;;;;;;;5044165;28;20042;-51
2021/01/23 06:27:09;;;;;;;0.20;0.20;;;;;;;;;;5045080;28;20026;-51
2021/01/23 06:29:36;;;;;;;0.10;0.10;;;;;;;;;;5052435;28;20051;-52
2021/01/23 06:32:10;;;;;;;0.10;0.10;;;;;;;;;;5050122;28;20121;-52
2021/01/23 06:34:44;;;;;;;0.40;0.40;;;;;;;;;;5055729;28;20087;-52
2021/01/23 06:37:29;;;;;;;0.10;0.10;;;;;;;;;;5056018;28;20051;-51
2021/01/23 06:40:01;;;;;;;0.10;0.10;;;;;;;;;;5051298;28;20091;-52
2021/01/23 06:42:28;;;;;;;0.10;0.10;;;;;;;;;;5047679;28;20026;-52
2021/01/23 06:44:54;;;;;;;0.10;0.10;;;;;;;;;;5046445;28;20021;-51
2021/01/23 06:47:20;;;;;;;0.10;0.10;;;;;;;;;;5045104;28;20029;-52
2021/01/23 06:49:46;;;;;;;0.10;0.10;;;;;;;;;;5043481;28;20091;-52
2021/01/23 06:52:12;;;;;;;0.10;0.10;;;;;;;;;;5044046;28;20441;-51
2021/01/23 06:54:39;;;;;;;0.20;0.20;;;;;;;;;;5043548;28;20075;-51
2021/01/23 06:57:05;;;;;;;5.95;1.40;;;;;;;;;;5045397;28;20059;-61
2021/01/23 06:59:33;;;;;;;0.90;0.20;;;;;;;;;;5046204;28;20068;-51
2021/01/23 07:02:09;;;;;;;0.30;0.30;;;;;;;;;;5036025;28;20124;-53
2021/01/23 07:04:37;;;;;;;0.20;0.20;;;;;;;;;;5032327;28;20125;-51
2021/01/23 07:07:08;;;;;;;0.40;0.40;;;;;;;;;;5032859;28;20104;-51
2021/01/23 07:09:46;;;;;;;3.72;0.57;;;;;;;;;;5033017;28;20033;-51
2021/01/23 07:12:30;;;;;;;0.22;0.22;;;;;;;;;;5033383;28;20021;-54
2021/01/23 07:14:57;;;;;;;0.20;0.20;;;;;;;;;;5031410;28;20026;-51
2021/01/23 07:17:23;;;;;;;0.20;0.20;;;;;;;;;;5033106;28;20120;-51
2021/01/23 07:19:49;;;;;;;0.15;0.15;;;;;;;;;;5032290;28;20097;-51
2021/01/23 07:22:15;;;;;;;4.50;0.65;;;;;;;;;;5032850;28;20026;-53
2021/01/23 07:24:41;;;;;;;1.55;0.38;;;;;;;;;;5033234;28;20479;-51
2021/01/23 07:27:07;;;;;;;0.28;0.28;;;;;;;;;;5032927;28;20530;-51
2021/01/23 07:29:34;;;;;;;0.10;0.10;;;;;;;;;;5033398;28;20037;-52
2021/01/23 07:32:00;;;;;;;0.13;0.13;;;;;;;;;;5032810;28;20037;-52
2021/01/23 07:34:26;;;;;;;0.20;0.20;;;;;;;;;;5032323;28;20482;-51
2021/01/23 07:36:52;;;;;;;0.55;0.25;;;;;;;;;;5032175;28;20029;-51
2021/01/23 07:39:19;;;;;;;0.13;0.13;;;;;;;;;;5033010;28;20018;-51
2021/01/23 07:41:49;;;;;;;0.20;0.20;;;;;;;;;;5033171;28;20509;-52
2021/01/23 07:44:16;;;;;;;0.40;0.40;;;;;;;;;;5033160;28;20075;-52
2021/01/23 07:46:43;;;;;;;1.10;0.82;;;;;;;;;;5032785;28;20165;-52
2021/01/23 07:49:20;;;;;;;2.60;0.20;;;;;;;;;;5032245;28;20029;-51
2021/01/23 07:51:46;;;;;;;0.65;0.20;;;;;;;;;;5032526;28;20109;-51
2021/01/23 07:54:13;;;;;;;0.52;0.20;;;;;;;;;;5016615;28;20083;-51
2021/01/23 07:56:50;;;;;;;0.47;0.47;;;;;;;;;;5033059;28;20431;-51
2021/01/23 07:59:16;;;;;;;3.63;0.55;;;;;;;;;;5031720;28;20044;-51
2021/01/23 08:01:43;;;;;;;0.80;0.25;;;;;;;;;;5031987;28;20029;-53
2021/01/23 08:04:28;;;;;;;3.42;0.20;;;;;;;;;;5032600;28;20032;-51
2021/01/23 08:07:12;;;;;;;0.83;0.83;;;;;;;;;;5032325;28;20526;-51
2021/01/23 08:09:38;;;;;;;1.33;0.38;;;;;;;;;;5031952;28;20037;-50
2021/01/23 08:12:14;;;;;;;1.35;0.28;;;;;;;;;;5032005;28;20128;-51
2021/01/23 08:14:50;;;;;;;0.10;0.10;;;;;;;;;;5027993;28;20109;-49
2021/01/23 08:17:16;;;;;;;1.08;0.20;;;;;;;;;;5029553;28;20049;-53
2021/01/23 08:19:51;;;;;;;1.77;0.17;;;;;;;;;;5031655;28;20483;-51
2021/01/23 08:22:18;;;;;;;9.40;1.10;;;;;;;;;;5029017;28;20422;-50
2021/01/23 08:24:44;;;;;;;0.20;0.20;;;;;;;;;;5031789;28;20470;-53
2021/01/23 08:27:17;;;;;;;6.80;0.40;;;;;;;;;;5031604;28;20079;-51
2021/01/23 08:29:46;;;;;;;1.00;0.68;;;;;;;;;;5028344;28;20042;-51
2021/01/23 08:32:13;;;;;;;0.57;0.43;;;;;;;;;;5031024;28;20036;-52
2021/01/23 08:34:39;;;;;;;1.15;0.60;;;;;;;;;;5030491;28;20034;-50
2021/01/23 08:37:05;;;;;;;2.75;0.47;;;;;;;;;;5031515;28;20071;-50
2021/01/23 08:39:42;;;;;;;4.47;1.73;;;;;;;;;;5031833;28;20025;-51
2021/01/23 08:42:08;;;;;;;0.10;0.10;;;;;;;;;;5031724;28;20030;-50
2021/01/23 08:44:34;;;;;;;0.10;0.10;;;;;;;;;;5032248;28;20022;-51
2021/01/23 08:47:02;;;;;;;0.10;0.10;;;;;;;;;;5030962;28;20462;-53
2021/01/23 08:49:28;;;;;;;0.30;0.30;;;;;;;;;;5031218;28;20041;-51
2021/01/23 08:51:54;;;;;;;0.20;0.20;;;;;;;;;;5031046;28;20030;-50
2021/01/23 08:54:21;;;;;;;0.20;0.20;;;;;;;;;;5031435;28;20041;-52
2021/01/23 08:56:47;;;;;;;0.10;0.10;;;;;;;;;;5031371;28;20018;-52
2021/01/23 08:59:14;;;;;;;4.00;0.57;;;;;;;;;;5031426;28;20033;-50
2021/01/23 09:01:40;;;;;;;1.42;0.55;;;;;;;;;;5030887;28;20403;-50
2021/01/23 09:04:06;;;;;;;0.90;0.70;;;;;;;;;;5028870;28;20033;-49
2021/01/23 09:06:32;;;;;;;0.45;0.20;;;;;;;;;;5030751;28;20025;-51
2021/01/23 09:08:58;;;;;;;4.03;0.30;;;;;;;;;;5030815;28;20588;-54
2021/01/23 09:11:24;;;;;;;2.83;0.40;;;;;;;;;;5029035;28;20037;-52
2021/01/23 09:13:50;;;;;;;1.35;0.25;;;;;;;;;;5030971;28;20036;-50
2021/01/23 09:16:16;;;;;;;1.02;0.47;;;;;;;;;;5030407;28;20032;-53
2021/01/23 09:18:42;;;;;;;1.08;0.40;;;;;;;;;;5030901;28;20041;-50
2021/01/23 09:21:09;;;;;;;0.20;0.20;;;;;;;;;;5030892;28;20053;-51
2021/01/23 09:23:35;;;;;;;0.10;0.10;;;;;;;;;;5031652;28;20022;-54
2021/01/23 09:26:04;;;;;;;0.60;0.55;;;;;;;;;;5030744;28;20025;-53
2021/01/23 09:28:30;;;;;;;1.75;0.35;;;;;;;;;;5030952;28;20022;-50
2021/01/23 09:30:58;;;;;;;0.73;0.57;;;;;;;;;;5030139;28;20044;-54
2021/01/23 09:33:24;;;;;;;0.25;0.25;;;;;;;;;;5030279;28;20112;-50
2021/01/23 09:35:50;;;;;;;0.13;0.13;;;;;;;;;;5030538;28;20029;-50
2021/01/23 09:38:17;;;;;;;0.80;0.25;;;;;;;;;;5029764;28;20631;-50
2021/01/23 09:40:43;;;;;;;1.40;0.30;;;;;;;;;;5030055;28;20030;-50
2021/01/23 09:43:09;;;;;;;0.30;0.30;;;;;;;;;;5029610;28;20021;-50
2021/01/23 09:45:35;;;;;;;1.55;0.52;;;;;;;;;;5030269;28;20392;-51
2021/01/23 09:48:01;;;;;;;0.38;0.30;;;;;;;;;;5029989;28;20029;-50
2021/01/23 09:50:27;;;;;;;0.45;0.45;;;;;;;;;;5030568;28;20041;-50
2021/01/23 09:52:54;;;;;;;0.65;0.20;;;;;;;;;;5030094;28;20033;-52
2021/01/23 09:55:20;;;;;;;0.30;0.30;;;;;;;;;;5029677;28;20037;-51
2021/01/23 09:57:46;;;;;;;0.30;0.30;;;;;;;;;;5029787;28;20020;-52
2021/01/23 10:00:13;;;;;;;0.20;0.20;;;;;;;;;;5014003;28;20053;-50
2021/01/23 10:02:39;;;;;;;1.75;1.33;;;;;;;;;;5029695;28;20033;-51
2021/01/23 10:05:06;;;;;;;0.52;0.52;;;;;;;;;;5031738;28;20040;-52
2021/01/23 10:07:32;;;;;;;0.20;0.20;;;;;;;;;;5029939;28;20026;-53
2021/01/23 10:09:58;;;;;;;0.10;0.10;;;;;;;;;;5028327;28;20051;-51
2021/01/23 10:12:28;;;;;;;0.20;0.20;;;;;;;;;;5028761;28;20021;-51
2021/01/23 10:14:54;;;;;;;8.98;0.85;;;;;;;;;;5029616;28;20022;-50
2021/01/23 10:17:21;;;;;;;0.17;0.17;;;;;;;;;;5029005;28;20431;-50
2021/01/23 10:19:47;;;;;;;0.15;0.15;;;;;;;;;;5028559;28;20021;-50
2021/01/23 10:22:13;;;;;;;7.75;0.60;;;;;;;;;;5026742;28;20498;-50
2021/01/23 10:24:39;;;;;;;0.30;0.20;;;;;;;;;;5027132;28;20041;-50
2021/01/23 10:27:05;;;;;;;4.47;0.20;;;;;;;;;;5026632;28;20412;-50
2021/01/23 10:29:31;;;;;;;0.90;0.40;;;;;;;;;;5025625;28;20125;-50
2021/01/23 10:31:58;;;;;;;0.35;0.35;;;;;;;;;;5025319;28;20087;-50
2021/01/23 10:34:24;;;;;;;1.20;0.20;;;;;;;;;;5025853;28;20040;-50
2021/01/23 10:36:50;;;;;;;0.35;0.32;;;;;;;;;;5025796;28;20025;-50
2021/01/23 10:39:16;;;;;;;0.32;0.22;;;;;;;;;;5028969;28;20037;-51
2021/01/23 10:41:42;;;;;;;8.90;1.23;;;;;;;;;;5029759;28;20458;-51
2021/01/23 10:44:10;;;;;;;0.30;0.20;;;;;;;;;;5031013;28;20104;-52
2021/01/23 10:46:36;;;;;;;0.10;0.10;;;;;;;;;;5031245;28;20645;-51
2021/01/23 10:49:03;;;;;;;5.78;0.45;;;;;;;;;;5031067;28;20057;-51
2021/01/23 10:51:29;;;;;;;0.25;0.20;;;;;;;;;;5031004;28;20105;-50
2021/01/23 10:53:55;;;;;;;0.52;0.52;;;;;;;;;;5031085;28;20471;-52
2021/01/23 10:56:21;;;;;;;0.20;0.20;;;;;;;;;;5031198;28;20092;-50
2021/01/23 10:58:47;;;;;;;0.20;0.20;;;;;;;;;;5029588;28;20474;-50
2021/01/23 11:01:13;;;;;;;1.08;0.82;;;;;;;;;;5030110;28;20107;-52
2021/01/23 11:03:40;;;;;;;0.60;0.40;;;;;;;;;;5031172;28;20491;-51
2021/01/23 11:06:06;;;;;;;0.40;0.40;;;;;;;;;;5030804;28;20067;-50
2021/01/23 11:08:33;;;;;;;0.10;0.10;;;;;;;;;;5031913;28;20038;-50
2021/01/23 11:10:59;;;;;;;3.72;0.30;;;;;;;;;;5030625;28;20395;-50
2021/01/23 11:13:27;;;;;;;0.20;0.20;;;;;;;;;;5029757;28;20510;-51
2021/01/23 11:15:53;;;;;;;3.13;0.40;;;;;;;;;;5030244;28;20028;-54
2021/01/23 11:18:19;;;;;;;1.48;0.40;;;;;;;;;;5030868;28;20028;-50
2021/01/23 11:20:45;;;;;;;0.15;0.15;;;;;;;;;;5030916;28;20194;-50
2021/01/23 11:23:11;;;;;;;0.10;0.10;;;;;;;;;;5044632;28;20033;-49
2021/01/23 11:25:37;;;;;;;0.20;0.20;;;;;;;;;;5030223;28;20041;-51
2021/01/23 11:28:04;;;;;;;0.80;0.80;;;;;;;;;;5032973;28;20505;-55
2021/01/23 11:30:30;;;;;;;0.40;0.40;;;;;;;;;;5033197;28;20479;-53
2021/01/23 11:32:56;;;;;;;4.13;0.40;;;;;;;;;;5032025;28;20029;-51
2021/01/23 11:35:22;;;;;;;4.45;0.60;;;;;;;;;;5033108;28;20029;-55
2021/01/23 11:37:48;;;;;;;0.30;0.30;;;;;;;;;;5031540;28;20027;-52
2021/01/23 11:40:15;;;;;;;0.20;0.20;;;;;;;;;;5032106;28;20033;-52
2021/01/23 11:42:41;;;;;;;0.98;0.40;;;;;;;;;;5032547;28;20447;-52
2021/01/23 11:45:10;;;;;;;0.10;0.10;;;;;;;;;;5032691;28;20116;-54
2021/01/23 11:47:37;;;;;;;0.25;0.20;;;;;;;;;;5033299;28;20487;-51
2021/01/23 11:50:06;;;;;;;4.00;0.75;;;;;;;;;;5030525;28;20403;-61
2021/01/23 11:52:32;;;;;;;8.00;1.08;;;;;;;;;;5032264;28;20041;-57
2021/01/23 11:54:58;;;;;;;0.20;0.20;;;;;;;;;;5032018;28;20018;-55
2021/01/23 11:57:24;;;;;;;0.43;0.25;;;;;;;;;;5032207;28;20056;-52
2021/01/23 11:59:50;;;;;;;2.03;0.63;;;;;;;;;;5032398;28;20077;-51
2021/01/23 12:02:16;;;;;;;0.20;0.20;;;;;;;;;;5032722;28;20040;-52
2021/01/23 12:04:43;;;;;;;5.00;0.90;;;;;;;;;;5032291;28;20108;-50
2021/01/23 12:07:09;;;;;;;0.38;0.20;;;;;;;;;;5028267;28;20053;-51
2021/01/23 12:09:35;;;;;;;4.88;0.93;;;;;;;;;;5030988;28;20040;-50
2021/01/23 12:12:04;;;;;;;3.72;0.55;;;;;;;;;;5031242;28;20080;-50
2021/01/23 12:14:32;;;;;;;0.20;0.20;;;;;;;;;;5030799;28;20075;-51
2021/01/23 12:16:58;;;;;;;0.25;0.25;;;;;;;;;;5031060;28;20076;-51
2021/01/23 12:19:24;;;;;;;0.25;0.25;;;;;;;;;;5031397;28;20388;-54
2021/01/23 12:21:50;;;;;;;0.22;0.20;;;;;;;;;;5029538;28;20100;-56
2021/01/23 12:24:16;;;;;;;1.30;0.90;;;;;;;;;;5031443;28;20083;-53
2021/01/23 12:26:42;;;;;;;0.10;0.10;;;;;;;;;;5031936;28;20380;-56
2021/01/23 12:29:09;;;;;;;0.40;0.28;;;;;;;;;;5031716;28;20033;-60
2021/01/23 12:31:35;;;;;;;0.20;0.20;;;;;;;;;;5031704;28;20036;-58
2021/01/23 12:34:01;;;;;;;0.57;0.43;;;;;;;;;;5031357;28;20107;-58
2021/01/23 12:36:27;;;;;;;0.20;0.20;;;;;;;;;;5031693;28;20030;-57
2021/01/23 12:38:53;;;;;;;0.35;0.35;;;;;;;;;;5031581;28;20526;-52
2021/01/23 12:41:20;;;;;;;0.20;0.20;;;;;;;;;;5027532;28;20502;-56
2021/01/23 12:43:46;;;;;;;0.80;0.65;;;;;;;;;;5031288;28;20149;-55
2021/01/23 12:46:12;;;;;;;2.13;0.75;;;;;;;;;;5031288;28;20484;-54
2021/01/23 12:48:38;;;;;;;0.20;0.20;;;;;;;;;;5030736;28;20017;-56
2021/01/23 12:51:04;;;;;;;0.10;0.10;;;;;;;;;;5030643;28;20021;-56
2021/01/23 12:53:30;;;;;;;0.10;0.10;;;;;;;;;;5030904;28;20030;-54
2021/01/23 12:55:56;;;;;;;1.13;0.63;;;;;;;;;;5030393;28;20028;-52
2021/01/23 12:58:22;;;;;;;0.20;0.20;;;;;;;;;;5030698;28;20509;-54
2021/01/23 13:00:49;;;;;;;2.90;0.65;;;;;;;;;;5029680;28;20053;-53
2021/01/23 13:03:15;;;;;;;0.20;0.20;;;;;;;;;;5030182;28;20026;-51
2021/01/23 13:05:41;;;;;;;4.30;0.55;;;;;;;;;;5029682;28;20052;-55
2021/01/23 13:08:07;;;;;;;4.70;0.57;;;;;;;;;;5030021;28;20028;-52
2021/01/23 13:10:33;;;;;;;0.30;0.25;;;;;;;;;;5030209;28;20415;-51
2021/01/23 13:12:59;;;;;;;3.13;0.85;;;;;;;;;;5030521;28;20025;-51
2021/01/23 13:15:25;;;;;;;2.20;0.65;;;;;;;;;;5030085;28;20056;-52
2021/01/23 13:17:52;;;;;;;0.10;0.10;;;;;;;;;;5030697;28;20036;-53
2021/01/23 13:20:18;;;;;;;0.77;0.40;;;;;;;;;;5028208;28;20129;-52
2021/01/23 13:22:44;;;;;;;0.35;0.30;;;;;;;;;;5029798;28;20022;-52
2021/01/23 13:25:12;;;;;;;4.07;0.75;;;;;;;;;;5030422;28;20036;-53
2021/01/23 13:27:41;;;;;;;0.20;0.20;;;;;;;;;;5031020;28;20104;-52
2021/01/23 13:30:07;;;;;;;1.17;0.40;;;;;;;;;;5030887;28;20502;-52
2021/01/23 13:32:34;;;;;;;1.48;0.50;;;;;;;;;;5030933;28;20033;-54
2021/01/23 13:35:00;;;;;;;1.67;0.43;;;;;;;;;;5030420;28;20034;-53
2021/01/23 13:37:26;;;;;;;0.85;0.70;;;;;;;;;;5030312;28;20491;-50
2021/01/23 13:39:52;;;;;;;0.10;0.10;;;;;;;;;;5030259;28;20095;-53
2021/01/23 13:42:18;;;;;;;0.28;0.28;;;;;;;;;;5030063;28;20026;-53
2021/01/23 13:44:44;;;;;;;0.30;0.25;;;;;;;;;;5031012;28;20057;-50
2021/01/23 13:47:10;;;;;;;0.20;0.20;;;;;;;;;;5028600;28;20453;-52
2021/01/23 13:49:36;;;;;;;0.75;0.22;;;;;;;;;;5029077;28;20083;-52
2021/01/23 13:52:03;;;;;;;0.20;0.20;;;;;;;;;;5029696;28;20112;-52
2021/01/23 13:54:29;;;;;;;0.20;0.20;;;;;;;;;;5030348;28;20029;-51
2021/01/23 13:56:55;;;;;;;4.28;0.75;;;;;;;;;;5030658;28;20021;-51
2021/01/23 13:59:21;;;;;;;0.40;0.40;;;;;;;;;;5030706;28;20033;-51
2021/01/23 14:01:48;;;;;;;0.20;0.20;;;;;;;;;;5030455;28;20036;-53
2021/01/23 14:04:14;;;;;;;0.30;0.30;;;;;;;;;;5030111;28;20025;-51
2021/01/23 14:06:40;;;;;;;6.47;1.38;;;;;;;;;;5030204;28;20029;-52
2021/01/23 14:09:06;;;;;;;0.30;0.30;;;;;;;;;;5030225;28;20029;-55
2021/01/23 14:11:32;;;;;;;0.20;0.20;;;;;;;;;;5032050;28;20040;-54
2021/01/23 14:13:58;;;;;;;0.10;0.10;;;;;;;;;;5034176;28;20057;-54
2021/01/23 14:16:24;;;;;;;0.35;0.35;;;;;;;;;;5034228;28;20024;-54
2021/01/23 14:18:50;;;;;;;0.20;0.20;;;;;;;;;;5033799;28;20029;-53
2021/01/23 14:21:16;;;;;;;0.15;0.15;;;;;;;;;;5033729;28;20080;-51
2021/01/23 14:23:42;;;;;;;0.20;0.20;;;;;;;;;;5034633;28;20221;-54
2021/01/23 14:26:09;;;;;;;0.20;0.20;;;;;;;;;;5034271;28;20025;-52
2021/01/23 14:28:35;;;;;;;0.22;0.22;;;;;;;;;;5034181;28;20425;-52
2021/01/23 14:31:01;;;;;;;0.20;0.20;;;;;;;;;;5034245;28;20031;-55
2021/01/23 14:33:28;;;;;;;0.20;0.20;;;;;;;;;;5033662;28;20119;-55
2021/01/23 14:35:54;;;;;;;0.20;0.20;;;;;;;;;;5034091;28;20560;-53
2021/01/23 14:38:20;;;;;;;0.17;0.17;;;;;;;;;;5034710;28;20025;-55
2021/01/23 14:40:46;;;;;;;0.20;0.20;;;;;;;;;;5033501;28;20048;-52
2021/01/23 14:43:12;;;;;;;0.43;0.25;;;;;;;;;;5033974;28;20021;-51
2021/01/23 14:45:38;;;;;;;0.20;0.20;;;;;;;;;;5034031;28;20109;-51
2021/01/23 14:48:05;;;;;;;0.15;0.15;;;;;;;;;;5033711;28;20399;-52
2021/01/23 14:50:33;;;;;;;5.05;4.72;;;;;;;;;;5033784;28;20036;-53
2021/01/23 14:52:59;;;;;;;0.75;0.28;;;;;;;;;;5032546;28;20022;-52
2021/01/23 14:55:25;;;;;;;0.40;0.40;;;;;;;;;;5032928;28;20060;-52
2021/01/23 14:57:51;;;;;;;0.20;0.20;;;;;;;;;;5032729;28;20117;-51
2021/01/23 15:00:17;;;;;;;0.43;0.30;;;;;;;;;;5033440;28;20045;-51
2021/01/23 15:02:44;;;;;;;0.20;0.20;;;;;;;;;;5033565;28;20030;-54
2021/01/23 15:05:10;;;;;;;0.20;0.20;;;;;;;;;;5033256;28;20034;-53
2021/01/23 15:07:36;;;;;;;0.17;0.17;;;;;;;;;;5033436;28;20371;-52
2021/01/23 15:10:03;;;;;;;0.20;0.20;;;;;;;;;;5033285;28;20490;-51
2021/01/23 15:12:29;;;;;;;0.20;0.20;;;;;;;;;;5032945;28;20032;-53
2021/01/23 15:14:55;;;;;;;0.10;0.10;;;;;;;;;;5033387;28;20508;-52
2021/01/23 15:17:22;;;;;;;0.20;0.20;;;;;;;;;;5033155;28;20494;-52
2021/01/23 15:19:48;;;;;;;0.30;0.30;;;;;;;;;;5032542;28;20486;-54
2021/01/23 15:22:15;;;;;;;0.30;0.30;;;;;;;;;;5031775;28;20017;-52
2021/01/23 15:24:42;;;;;;;0.20;0.20;;;;;;;;;;5032503;28;20021;-53
2021/01/23 15:27:08;;;;;;;0.20;0.20;;;;;;;;;;5031469;28;20120;-52
2021/01/23 15:29:34;;;;;;;0.10;0.10;;;;;;;;;;5031473;28;20096;-52
2021/01/23 15:32:00;;;;;;;0.10;0.10;;;;;;;;;;5025201;28;20021;-51
2021/01/23 15:34:27;;;;;;;0.20;0.20;;;;;;;;;;5034015;28;20036;-52
2021/01/23 15:36:53;;;;;;;0.10;0.10;;;;;;;;;;5029114;28;20033;-53
2021/01/23 15:39:19;;;;;;;0.13;0.13;;;;;;;;;;5033781;28;20029;-52
2021/01/23 15:41:45;;;;;;;0.10;0.10;;;;;;;;;;5017039;28;20037;-51
2021/01/23 15:44:11;;;;;;;0.10;0.10;;;;;;;;;;5024320;28;20454;-53
2021/01/23 15:46:37;;;;;;;0.20;0.20;;;;;;;;;;5034007;28;20087;-52
2021/01/23 15:49:06;;;;;;;0.20;0.20;;;;;;;;;;5031975;28;20104;-50
2021/01/23 15:51:33;;;;;;;0.20;0.20;;;;;;;;;;5032008;28;20026;-50
2021/01/23 15:53:59;;;;;;;0.20;0.20;;;;;;;;;;5031603;28;20029;-51
2021/01/23 15:56:25;;;;;;;0.10;0.10;;;;;;;;;;5032017;28;20111;-50
2021/01/23 15:58:51;;;;;;;0.10;0.10;;;;;;;;;;5029078;28;20044;-53
2021/01/23 16:01:17;;;;;;;0.10;0.10;;;;;;;;;;5025317;28;20119;-52
2021/01/23 16:03:43;;;;;;;0.15;0.15;;;;;;;;;;5025541;28;20030;-52
2021/01/23 16:06:11;;;;;;;0.20;0.20;;;;;;;;;;5026699;28;20125;-55
2021/01/23 16:08:37;;;;;;;0.20;0.20;;;;;;;;;;5027606;28;20113;-50
2021/01/23 16:11:03;;;;;;;0.10;0.10;;;;;;;;;;5021036;28;20041;-55
2021/01/23 16:13:29;;;;;;;0.60;0.60;;;;;;;;;;5023839;28;20060;-51
2021/01/23 16:15:55;;;;;;;0.20;0.20;;;;;;;;;;5025448;28;20577;-55
2021/01/23 16:18:22;;;;;;;0.10;0.10;;;;;;;;;;5027177;28;20033;-51
2021/01/23 16:20:48;;;;;;;0.20;0.20;;;;;;;;;;5028241;28;20086;-53
2021/01/23 16:23:15;;;;;;;0.10;0.10;;;;;;;;;;5025812;28;20033;-54
2021/01/23 16:25:41;;;;;;;0.20;0.20;;;;;;;;;;5027894;28;20037;-54
2021/01/23 16:28:07;;;;;;;0.20;0.20;;;;;;;;;;5024680;28;20041;-59
2021/01/23 16:30:33;;;;;;;0.20;0.20;;;;;;;;;;5026718;28;20038;-59
2021/01/23 16:32:59;;;;;;;0.20;0.20;;;;;;;;;;5026354;28;20368;-60
2021/01/23 16:35:26;;;;;;;0.20;0.20;;;;;;;;;;5024000;28;20029;-59
2021/01/23 16:37:52;;;;;;;0.20;0.20;;;;;;;;;;5025411;28;20033;-60
2021/01/23 16:40:18;;;;;;;0.20;0.20;;;;;;;;;;5025459;28;20041;-60
2021/01/23 16:42:48;;;;;;;0.20;0.20;;;;;;;;;;5026171;28;20403;-59
2021/01/23 16:45:15;;;;;;;0.20;0.20;;;;;;;;;;5024054;28;20064;-59
2021/01/23 16:47:41;;;;;;;0.20;0.20;;;;;;;;;;5027872;28;20521;-60
2021/01/23 16:50:08;;;;;;;0.20;0.20;;;;;;;;;;5025876;28;20025;-59
2021/01/23 16:52:34;;;;;;;0.20;0.20;;;;;;;;;;5027135;28;20025;-59
2021/01/23 16:55:01;;;;;;;0.17;0.17;;;;;;;;;;5027691;28;20069;-59
2021/01/23 16:57:27;;;;;;;0.20;0.20;;;;;;;;;;5026416;28;20028;-60
2021/01/23 16:59:53;;;;;;;0.20;0.20;;;;;;;;;;5026553;28;20615;-59
2021/01/23 17:02:19;;;;;;;0.20;0.20;;;;;;;;;;5024269;28;20057;-59
2021/01/23 17:04:45;;;;;;;0.20;0.20;;;;;;;;;;5025206;28;20033;-59
2021/01/23 17:07:11;;;;;;;0.30;0.30;;;;;;;;;;5024637;28;20118;-59
2021/01/23 17:09:38;;;;;;;0.20;0.20;;;;;;;;;;5027012;28;20036;-57
2021/01/23 17:12:04;;;;;;;0.22;0.22;;;;;;;;;;5028586;28;20403;-58
2021/01/23 17:14:31;;;;;;;0.20;0.20;;;;;;;;;;5029489;28;20029;-58
2021/01/23 17:16:57;;;;;;;0.17;0.17;;;;;;;;;;5027344;28;20022;-58
2021/01/23 17:19:24;;;;;;;0.20;0.20;;;;;;;;;;5030106;28;20037;-53
2021/01/23 17:21:50;;;;;;;0.20;0.20;;;;;;;;;;5029883;28;20663;-52
2021/01/23 17:24:17;;;;;;;0.20;0.20;;;;;;;;;;5030610;28;20022;-56
2021/01/23 17:26:43;;;;;;;0.20;0.20;;;;;;;;;;5030961;28;20261;-56
2021/01/23 17:29:09;;;;;;;0.20;0.20;;;;;;;;;;5029157;28;20060;-57
2021/01/23 17:31:35;;;;;;;0.30;0.30;;;;;;;;;;5029806;28;20087;-56
2021/01/23 17:34:01;;;;;;;0.30;0.30;;;;;;;;;;5030123;28;20060;-55
2021/01/23 17:36:27;;;;;;;1.40;1.25;;;;;;;;;;5029049;28;20048;-54
2021/01/23 17:38:53;;;;;;;0.30;0.30;;;;;;;;;;5029004;28;20064;-56
2021/01/23 17:41:19;;;;;;;4.45;4.20;;;;;;;;;;5028836;28;20037;-56
2021/01/23 17:43:47;;;;;;;15.18;10.57;;;;;;;;;;5029374;28;20029;-56
2021/01/23 17:46:13;;;;;;;0.20;0.20;;;;;;;;;;5029502;28;20060;-57
2021/01/23 17:48:39;;;;;;;5.53;5.25;;;;;;;;;;5030066;28;20445;-57
2021/01/23 17:51:06;;;;;;;0.28;0.28;;;;;;;;;;5030110;28;20036;-57
2021/01/23 17:53:32;;;;;;;0.30;0.30;;;;;;;;;;5030780;28;20061;-57
2021/01/23 17:55:58;;;;;;;0.30;0.30;;;;;;;;;;5028750;28;20502;-56
2021/01/23 17:58:24;;;;;;;0.30;0.30;;;;;;;;;;5029482;28;20021;-54
2021/01/23 18:00:51;;;;;;;0.30;0.30;;;;;;;;;;5029600;28;20053;-56
2021/01/23 18:03:17;;;;;;;0.28;0.28;;;;;;;;;;5030170;28;20025;-55
2021/01/23 18:05:43;;;;;;;0.32;0.32;;;;;;;;;;5030462;28;20056;-55
2021/01/23 18:08:09;;;;;;;0.20;0.20;;;;;;;;;;5028777;28;20029;-55
2021/01/23 18:10:35;;;;;;;0.20;0.20;;;;;;;;;;5029046;28;20072;-54
2021/01/23 18:13:01;;;;;;;0.30;0.30;;;;;;;;;;5029997;28;20503;-55
2021/01/23 18:15:27;;;;;;;24.80;23.05;;;;;;;;;;5029572;28;20104;-56
2021/01/23 18:17:53;;;;;;;0.30;0.30;;;;;;;;;;5029973;28;20037;-55
2021/01/23 18:20:20;;;;;;;0.25;0.25;;;;;;;;;;5028869;28;20111;-55
2021/01/23 18:22:46;;;;;;;0.20;0.20;;;;;;;;;;5029451;28;20026;-56
2021/01/23 18:25:13;;;;;;;0.32;0.32;;;;;;;;;;5028920;28;20025;-56
2021/01/23 18:27:39;;;;;;;0.30;0.30;;;;;;;;;;5030327;28;20398;-53
2021/01/23 18:30:06;;;;;;;0.30;0.30;;;;;;;;;;5030015;28;20041;-55
2021/01/23 18:32:32;;;;;;;10.43;7.53;;;;;;;;;;5030723;28;20044;-54
2021/01/23 18:34:58;;;;;;;0.30;0.30;;;;;;;;;;5029763;28;20022;-54
2021/01/23 18:37:25;;;;;;;0.63;0.63;;;;;;;;;;5029656;28;20491;-54
2021/01/23 18:39:51;;;;;;;0.35;0.35;;;;;;;;;;5029193;28;20056;-55
2021/01/23 18:42:17;;;;;;;0.77;0.77;;;;;;;;;;5030389;28;20022;-57
2021/01/23 18:44:43;;;;;;;0.43;0.43;;;;;;;;;;5030911;28;20045;-54
2021/01/23 18:47:10;;;;;;;0.20;0.20;;;;;;;;;;5029771;28;20033;-56
2021/01/23 18:49:36;;;;;;;0.22;0.22;;;;;;;;;;5029708;28;20028;-56
2021/01/23 18:52:02;;;;;;;7.75;7.43;;;;;;;;;;5029314;28;20568;-55
2021/01/23 18:54:28;;;;;;;0.52;0.52;;;;;;;;;;5029373;28;20033;-55
2021/01/23 18:56:54;;;;;;;1.67;1.58;;;;;;;;;;5030133;28;20060;-52
2021/01/23 18:59:20;;;;;;;0.40;0.40;;;;;;;;;;5032098;28;20119;-56
2021/01/23 19:01:46;;;;;;;0.65;0.65;;;;;;;;;;5032925;28;20059;-55
2021/01/23 19:04:12;;;;;;;5.43;4.90;;;;;;;;;;5031729;28;20495;-56
2021/01/23 19:06:38;;;;;;;0.22;0.22;;;;;;;;;;5027462;28;20036;-56
2021/01/23 19:09:05;;;;;;;0.20;0.20;;;;;;;;;;5027095;28;20032;-55
2021/01/23 19:11:31;;;;;;;1.50;1.40;;;;;;;;;;5030154;28;20022;-55
2021/01/23 19:13:57;;;;;;;0.30;0.30;;;;;;;;;;5028381;28;20576;-55
2021/01/23 19:16:23;;;;;;;0.30;0.30;;;;;;;;;;5029251;28;20025;-53
2021/01/23 19:18:50;;;;;;;0.68;0.68;;;;;;;;;;5029020;28;20491;-55
2021/01/23 19:21:16;;;;;;;1.30;1.23;;;;;;;;;;5029836;28;20514;-55
2021/01/23 19:23:42;;;;;;;7.70;6.95;;;;;;;;;;5037015;28;20031;-56
2021/01/23 19:26:08;;;;;;;0.20;0.20;;;;;;;;;;5024796;28;20399;-56
2021/01/23 19:28:35;;;;;;;1.45;1.30;;;;;;;;;;5024474;28;20040;-56
2021/01/23 19:31:01;;;;;;;0.30;0.30;;;;;;;;;;5029078;28;20017;-56
2021/01/23 19:33:27;;;;;;;0.30;0.30;;;;;;;;;;5022078;28;20030;-57
2021/01/23 19:35:53;;;;;;;0.40;0.40;;;;;;;;;;5030246;28;20041;-54
2021/01/23 19:38:19;;;;;;;1.42;1.38;;;;;;;;;;5027827;28;20030;-56
2021/01/23 19:40:45;;;;;;;4.30;4.03;;;;;;;;;;5029454;28;20037;-52
2021/01/23 19:43:11;;;;;;;0.40;0.40;;;;;;;;;;5029840;28;20234;-55
2021/01/23 19:45:37;;;;;;;7.70;4.85;;;;;;;;;;5030114;28;20038;-53
2021/01/23 19:48:04;;;;;;;1.38;1.38;;;;;;;;;;5028950;28;20391;-55
2021/01/23 19:50:30;;;;;;;3.70;3.55;;;;;;;;;;5029707;28;20021;-54
2021/01/23 19:52:56;;;;;;;0.40;0.40;;;;;;;;;;5023842;28;20025;-55
2021/01/23 19:55:22;;;;;;;0.32;0.32;;;;;;;;;;5028419;28;20056;-55
2021/01/23 19:57:48;;;;;;;0.40;0.40;;;;;;;;;;5028472;28;20581;-55
2021/01/23 20:00:16;;;;;;;0.30;0.30;;;;;;;;;;5027355;28;20057;-55
2021/01/23 20:02:42;;;;;;;8.20;7.82;;;;;;;;;;5021334;28;20026;-53
2021/01/23 20:05:09;;;;;;;4.75;4.38;;;;;;;;;;5030830;28;20041;-55
2021/01/23 20:07:35;;;;;;;0.88;0.88;;;;;;;;;;5029375;28;20041;-55
2021/01/23 20:10:01;;;;;;;0.30;0.30;;;;;;;;;;5028087;28;20025;-53
2021/01/23 20:12:27;;;;;;;2.50;2.40;;;;;;;;;;5025615;28;20402;-56
2021/01/23 20:14:53;;;;;;;20.67;19.33;;;;;;;;;;5028484;28;20877;-53
2021/01/23 20:17:19;;;;;;;0.40;0.40;;;;;;;;;;5027364;28;20047;-54
2021/01/23 20:19:46;;;;;;;1.20;1.17;;;;;;;;;;5029383;28;20049;-53
2021/01/23 20:22:12;;;;;;;0.40;0.40;;;;;;;;;;5027743;28;20188;-54
2021/01/23 20:24:38;;;;;;;3.40;2.67;;;;;;;;;;5028604;28;20056;-54
2021/01/23 20:27:04;;;;;;;3.67;1.77;;;;;;;;;;5022823;28;20041;-55
2021/01/23 20:29:30;;;;;;;10.32;9.38;;;;;;;;;;5026949;28;20025;-53
2021/01/23 20:31:56;;;;;;;2.50;1.95;;;;;;;;;;5028489;28;20565;-54
2021/01/23 20:34:23;;;;;;;13.00;12.27;;;;;;;;;;5028893;28;20029;-55
2021/01/23 20:36:50;;;;;;;0.30;0.30;;;;;;;;;;5026594;28;20057;-54
2021/01/23 20:39:16;;;;;;;4.68;4.43;;;;;;;;;;5026000;28;20079;-54
2021/01/23 20:41:42;;;;;;;2.30;2.20;;;;;;;;;;5027737;28;20291;-54